EDT,Max TemperatureF,Mean TemperatureF,Min TemperatureF,Max Dew PointF,MeanDew PointF,Min DewpointF,Max Humidity, Mean Humidity, Min Humidity, Max Sea Level PressureIn, Mean Sea Level PressureIn, Min Sea Level PressureIn, Max VisibilityMiles, Mean VisibilityMiles, Min VisibilityMiles, Max Wind SpeedMPH, Mean Wind SpeedMPH, Max Gust SpeedMPH,PrecipitationIn, CloudCover, Events, WindDirDegrees
2011-10-1,69,66,66,64,64,64,94,90,83,29.62,29.61,29.59,10,9,8,12,4,,0.00,6,,5
2011-10-2,64,64,64,52,51,50,64,62,59,29.85,29.84,29.83,10,10,10,7,7,,0.00,3,,210
2011-10-3,60,,60,48,48,48,63,63,63,30.05,30.05,30.05,10,10,10,0,0,,0.00,8,,-1
2011-10-4,60,58,55,55,54,54,94,85,77,29.99,29.96,29.92,10,10,10,14,8,,0.00,5,,317
2011-10-5,69,64,60,54,50,46,77,57,43,30.06,30.02,30.00,10,10,10,17,13,,0.00,0,,325
2011-10-6,55,,55,39,39,39,54,54,54,30.34,30.34,30.34,10,10,10,5,5,,0.00,0,,344
2011-10-7,59,55,55,45,40,36,67,54,42,30.48,30.46,30.45,10,10,10,5,5,,0.00,0,,-1
2011-10-8,,,,,,,,,,,,,,,,,,,,,,
2011-10-9,78,75,75,61,61,61,61,58,54,30.36,30.34,30.31,10,10,10,9,8,,0.00,0,,315
2011-10-10,,,,,,,,,,,,,,,,,,,,,,
2011-10-11,68,66,64,54,54,54,68,63,60,30.23,30.21,30.19,10,10,10,6,5,,0.00,3,,56
2011-10-12,60,60,59,55,54,54,88,82,77,30.17,30.13,30.09,10,8,5,7,5,,0.00,8,Rain,80
2011-10-13,66,63,60,64,62,61,100,93,88,29.81,29.78,29.76,10,6,1,12,6,,0.00,8,,38
2011-10-14,66,66,66,64,64,64,94,94,94,29.60,29.57,29.53,4,4,3,14,14,,0.00,8,Rain,155
2011-10-15,66,,66,45,45,45,46,46,46,29.63,29.63,29.63,10,10,10,29,29,39,0.00,0,,260
2011-10-16,66,65,62,46,46,45,55,51,46,29.83,29.80,29.77,10,10,10,21,19,,0.00,0,,237
2011-10-17,64,62,59,57,50,45,82,66,49,29.77,29.74,29.72,10,10,10,16,13,26,0.00,3,,291
2011-10-18,66,62,59,52,46,39,72,56,40,29.89,29.89,29.87,10,10,10,6,2,,0.00,4,,221
2011-10-19,62,61,60,61,61,61,100,98,94,29.80,29.68,29.57,2,1,1,14,10,,0.00,8,Rain,65
2011-10-20,66,65,64,61,56,54,83,73,68,29.56,29.53,29.49,10,9,7,28,22,38,0.00,3,,223
2011-10-21,59,55,53,43,43,43,67,60,55,29.91,29.90,29.89,10,10,10,16,15,26,0.00,1,,253
2011-10-22,59,57,51,48,47,46,82,70,63,30.06,30.04,30.02,10,10,10,14,11,,0.00,2,,272
2011-10-23,55,52,51,45,44,43,76,70,63,30.16,30.13,30.12,10,10,10,5,1,,0.00,7,,-1
2011-10-24,59,59,59,50,48,46,72,68,63,30.09,30.06,30.03,10,10,10,12,11,,0.00,2,,175
2011-10-25,60,58,57,46,43,36,67,57,39,30.00,29.97,29.94,10,10,10,17,10,,0.00,0,,315
2011-10-26,62,56,50,55,50,45,82,76,72,29.99,29.86,29.77,10,10,10,12,5,17,0.00,6,,202
2011-10-27,50,49,48,48,47,46,94,93,93,29.71,29.64,29.59,5,3,2,12,4,,0.00,8,Rain,34
2011-10-28,46,43,42,30,29,28,57,55,50,30.20,30.20,30.19,10,10,10,16,13,24,0.00,0,,17
2011-10-29,46,44,39,39,38,36,93,83,66,30.17,30.00,29.81,10,5,1,24,16,34,0.00,8,Rain,60
2011-10-30,46,39,39,34,34,34,81,72,62,30.10,30.05,30.00,10,10,10,16,15,26,0.00,0,,350
2011-10-31,53,45,37,37,36,36,93,62,51,30.42,30.40,30.37,10,10,10,12,3,,0.00,1,,150